createdAt,value
2019-04-06T00:02:27.209Z,94440.90
2019-04-06T00:04:55.680Z,94438.73
2019-04-06T00:07:24.285Z,94439.58
2019-04-06T00:09:52.852Z,94434.03
2019-04-06T00:12:21.556Z,94438.28
2019-04-06T00:14:50.097Z,94430.16
2019-04-06T00:17:18.790Z,94426.68
2019-04-06T00:19:47.325Z,94428.27
2019-04-06T00:22:15.859Z,94423.53
2019-04-06T00:24:44.607Z,94426.41
2019-04-06T00:27:13.400Z,94421.20
2019-04-06T00:29:42.371Z,94433.12
2019-04-06T00:32:12.615Z,94435.20
2019-04-06T00:34:41.227Z,94430.50
2019-04-06T00:37:09.841Z,94423.02
2019-04-06T00:39:38.345Z,94434.34
2019-04-06T00:42:07.025Z,94433.05
2019-04-06T00:44:35.569Z,94431.38
2019-04-06T00:47:04.187Z,94434.34
2019-04-06T00:49:32.790Z,94433.12
2019-04-06T00:52:07.115Z,94425.94
2019-04-06T00:54:35.725Z,94433.17
2019-04-06T00:57:04.482Z,94434.91
2019-04-06T00:59:33.072Z,94430.23
2019-04-06T01:02:01.697Z,94433.23
2019-04-06T01:04:30.233Z,94435.36
2019-04-06T01:06:58.948Z,94428.61
2019-04-06T01:09:27.580Z,94431.61
2019-04-06T01:11:57.588Z,94432.05
2019-04-06T01:14:26.125Z,94427.34
2019-04-06T01:16:54.734Z,94428.64
2019-04-06T01:19:23.340Z,94422.68
2019-04-06T01:21:51.933Z,94424.34
2019-04-06T01:24:20.497Z,94429.08
2019-04-06T01:26:49.112Z,94422.26
2019-04-06T01:29:17.709Z,94417.97
2019-04-06T01:31:46.235Z,94415.86
2019-04-06T01:34:14.846Z,94420.95
2019-04-06T01:36:43.447Z,94412.94
2019-04-06T01:39:11.990Z,94415.02
2019-04-06T01:41:40.672Z,94415.05
2019-04-06T01:44:09.480Z,94424.08
2019-04-06T01:46:38.013Z,94421.14
2019-04-06T01:49:06.688Z,94422.80
2019-04-06T01:51:35.227Z,94424.97
2019-04-06T01:54:03.690Z,94427.53
2019-04-06T01:56:32.394Z,94416.13
2019-04-06T01:59:00.948Z,94407.25
2019-04-06T02:01:31.125Z,94410.68
2019-04-06T02:03:59.862Z,94413.75
2019-04-06T02:06:28.520Z,94413.75
2019-04-06T02:08:57.123Z,94420.53
2019-04-06T02:11:25.736Z,94415.44
2019-04-06T02:13:54.333Z,94418.48
2019-04-06T02:16:22.960Z,94417.25
2019-04-06T02:18:51.497Z,94430.02
2019-04-06T02:21:20.067Z,94435.98
2019-04-06T02:23:48.815Z,94438.44
2019-04-06T02:26:17.376Z,94449.02
2019-04-06T02:28:45.994Z,94450.29
2019-04-06T02:31:18.928Z,94442.66
2019-04-06T02:33:57.920Z,94434.25
2019-04-06T02:36:44.476Z,94437.28
2019-04-06T02:39:30.818Z,94444.05
2019-04-06T02:42:07.190Z,94440.62
2019-04-06T02:44:35.696Z,94450.03
2019-04-06T02:47:04.567Z,94451.33
2019-04-06T02:49:33.172Z,94452.20
2019-04-06T02:52:01.708Z,94457.30
2019-04-06T02:54:30.260Z,94452.66
2019-04-06T02:56:58.939Z,94452.68
2019-04-06T02:59:27.592Z,94454.78
2019-04-06T03:01:56.227Z,94459.44
2019-04-06T03:04:24.918Z,94451.77
2019-04-06T03:06:53.455Z,94455.59
2019-04-06T03:09:22.133Z,94459.89
2019-04-06T03:11:50.772Z,94452.75
2019-04-06T03:14:19.385Z,94456.58
2019-04-06T03:16:48.019Z,94457.03
2019-04-06T03:19:16.695Z,94447.77
2019-04-06T03:21:45.244Z,94447.78
2019-04-06T03:24:13.782Z,94447.41
2019-04-06T03:26:42.499Z,94444.10
2019-04-06T03:29:12.774Z,94446.30
2019-04-06T03:31:41.418Z,94445.05
2019-04-06T03:34:10.043Z,94446.78
2019-04-06T03:36:38.671Z,94442.60
2019-04-06T03:39:07.713Z,94448.97
2019-04-06T03:41:36.266Z,94465.50
2019-04-06T03:44:05.326Z,94465.05
2019-04-06T03:46:34.154Z,94467.68
2019-04-06T03:49:02.967Z,94468.95
2019-04-06T03:51:31.446Z,94463.80
2019-04-06T03:54:01.321Z,94472.78
2019-04-06T03:56:29.810Z,94468.59
2019-04-06T03:58:58.678Z,94468.59
2019-04-06T04:01:27.611Z,94468.64
2019-04-06T04:03:57.827Z,94460.99
2019-04-06T04:06:26.343Z,94461.43
2019-04-06T04:08:54.953Z,94458.87
2019-04-06T04:11:23.496Z,94462.76
2019-04-06T04:13:53.429Z,94457.70
2019-04-06T04:16:22.079Z,94455.98
2019-04-06T04:18:50.619Z,94451.33
2019-04-06T04:21:19.154Z,94450.05
2019-04-06T04:23:47.786Z,94443.66
2019-04-06T04:26:16.363Z,94450.86
2019-04-06T04:28:44.879Z,94450.03
2019-04-06T04:31:13.488Z,94452.56
2019-04-06T04:33:42.213Z,94459.33
2019-04-06T04:36:10.774Z,94459.70
2019-04-06T04:38:39.345Z,94463.80
2019-04-06T04:41:07.949Z,94459.44
2019-04-06T04:43:36.628Z,94466.14
2019-04-06T04:46:05.332Z,94464.34
2019-04-06T04:48:33.978Z,94464.70
2019-04-06T04:51:02.641Z,94463.86
2019-04-06T04:53:31.283Z,94468.55
2019-04-06T04:55:59.773Z,94462.67
2019-04-06T04:58:28.365Z,94462.25
2019-04-06T05:00:56.974Z,94463.45
2019-04-06T05:03:25.596Z,94459.61
2019-04-06T05:05:54.360Z,94462.14
2019-04-06T05:08:23.005Z,94467.19
2019-04-06T05:10:51.575Z,94467.95
2019-04-06T05:13:20.179Z,94462.72
2019-04-06T05:16:11.976Z,94468.91
2019-04-06T05:18:42.205Z,94461.48
2019-04-06T05:21:11.801Z,94466.77
2019-04-06T05:23:40.873Z,94476.30
2019-04-06T05:26:09.715Z,94467.66
2019-04-06T05:28:38.451Z,94470.11
2019-04-06T05:31:08.561Z,94476.75
2019-04-06T05:33:37.218Z,94474.78
2019-04-06T05:36:06.437Z,94479.64
2019-04-06T05:38:35.227Z,94475.23
2019-04-06T05:41:04.942Z,94474.66
2019-04-06T05:43:33.509Z,94480.02
2019-04-06T05:46:02.131Z,94479.88
2019-04-06T05:48:30.640Z,94480.98
2019-04-06T05:50:59.327Z,94482.13
2019-04-06T05:53:28.052Z,94478.98
2019-04-06T05:55:56.634Z,94471.97
2019-04-06T05:58:25.248Z,94473.88
2019-04-06T06:00:53.898Z,94468.61
2019-04-06T06:03:22.439Z,94472.77
2019-04-06T06:05:51.052Z,94470.39
2019-04-06T06:08:19.668Z,94463.02
2019-04-06T06:10:48.577Z,94463.69
2019-04-06T06:13:17.280Z,94459.73
2019-04-06T06:15:45.890Z,94469.80
2019-04-06T06:18:25.360Z,94467.50
2019-04-06T06:20:44.685Z,94474.59
2019-04-06T06:23:13.403Z,94470.63
2019-04-06T06:25:42.168Z,94470.05
2019-04-06T06:28:15.078Z,94466.02
2019-04-06T06:30:41.105Z,94464.98
2019-04-06T06:33:10.046Z,94469.84
2019-04-06T06:35:39.576Z,94469.09
2019-04-06T06:38:08.677Z,94477.29
2019-04-06T06:40:37.161Z,94468.39
2019-04-06T06:43:05.860Z,94477.38
2019-04-06T06:45:34.757Z,94478.23
2019-04-06T06:48:03.334Z,94475.69
2019-04-06T06:50:34.252Z,94476.97
2019-04-06T06:53:03.131Z,94479.09
2019-04-06T06:55:31.781Z,94484.50
2019-04-06T06:58:00.321Z,94473.61
2019-04-06T07:00:28.970Z,94474.17
2019-04-06T07:02:57.581Z,94479.80
2019-04-06T07:05:26.200Z,94473.92
2019-04-06T07:07:54.898Z,94472.07
2019-04-06T07:10:23.468Z,94467.41
2019-04-06T07:12:52.088Z,94474.85
2019-04-06T07:15:20.699Z,94477.70
2019-04-06T07:17:49.354Z,94476.66
2019-04-06T07:20:18.280Z,94476.11
2019-04-06T07:22:48.897Z,94475.61
2019-04-06T07:25:17.507Z,94484.09
2019-04-06T07:27:45.987Z,94484.09
2019-04-06T07:30:14.697Z,94486.16
2019-04-06T07:32:43.321Z,94486.21
2019-04-06T07:35:12.050Z,94490.02
2019-04-06T07:37:40.826Z,94492.09
2019-04-06T07:40:09.802Z,94484.42
2019-04-06T07:42:38.323Z,94486.53
2019-04-06T07:45:10.291Z,94489.89
2019-04-06T07:47:39.280Z,94489.76
2019-04-06T07:50:09.051Z,94493.19
2019-04-06T07:52:37.768Z,94492.64
2019-04-06T07:55:09.539Z,94495.53
2019-04-06T07:57:38.169Z,94499.34
2019-04-06T08:00:10.310Z,94499.99
2019-04-06T08:02:38.947Z,94501.59
2019-04-06T08:05:08.031Z,94498.84
2019-04-06T08:07:36.677Z,94493.15
2019-04-06T08:10:07.135Z,94494.57
2019-04-06T08:12:35.760Z,94497.97
2019-04-06T08:15:06.856Z,94492.91
2019-04-06T08:17:35.482Z,94485.60
2019-04-06T08:20:08.715Z,94480.48
2019-04-06T08:22:37.358Z,94483.95
2019-04-06T08:25:08.065Z,94485.63
2019-04-06T08:27:36.835Z,94482.27
2019-04-06T08:30:12.765Z,94480.59
2019-04-06T08:32:41.411Z,94473.32
2019-04-06T08:35:10.082Z,94471.58
2019-04-06T08:37:38.927Z,94467.09
2019-04-06T08:40:08.325Z,94474.41
2019-04-06T08:42:37.062Z,94469.52
2019-04-06T08:45:07.518Z,94472.27
2019-04-06T08:47:38.312Z,94468.80
2019-04-06T08:50:08.202Z,94468.08
2019-04-06T08:52:36.759Z,94469.11
2019-04-06T08:55:07.153Z,94469.83
2019-04-06T08:57:36.074Z,94466.67
2019-04-06T09:00:07.162Z,94470.45
2019-04-06T09:02:36.295Z,94471.73
2019-04-06T09:05:10.944Z,94472.14
2019-04-06T09:07:40.926Z,94472.14
2019-04-06T09:10:09.963Z,94470.45
2019-04-06T09:12:38.732Z,94467.36
2019-04-06T09:15:10.140Z,94468.13
2019-04-06T09:17:38.682Z,94469.42
2019-04-06T09:20:08.399Z,94472.59
2019-04-06T09:22:37.039Z,94468.84
2019-04-06T09:25:07.362Z,94475.29
2019-04-06T09:27:36.019Z,94473.34
2019-04-06T09:30:07.436Z,94473.80
2019-04-06T09:32:35.903Z,94476.72
2019-04-06T09:35:05.428Z,94475.37
2019-04-06T09:37:34.029Z,94473.80
2019-04-06T09:40:02.964Z,94482.87
2019-04-06T09:42:31.685Z,94485.86
2019-04-06T09:45:17.839Z,94484.11
2019-04-06T09:48:00.272Z,94486.94
2019-04-06T09:50:39.125Z,94482.56
2019-04-06T09:53:18.370Z,94482.39
2019-04-06T09:55:51.637Z,94489.17
2019-04-06T09:58:38.226Z,94495.14
2019-04-06T10:01:14.485Z,94492.90
2019-04-06T10:03:59.943Z,94500.55
2019-04-06T10:06:45.061Z,94508.00
2019-04-06T10:09:15.321Z,94508.28
2019-04-06T10:12:04.535Z,94509.67
2019-04-06T10:14:53.020Z,94512.70
2019-04-06T10:17:32.387Z,94514.22
2019-04-06T10:20:11.908Z,94515.60
2019-04-06T10:22:54.371Z,94512.98
2019-04-06T10:25:24.677Z,94517.20
2019-04-06T10:28:00.895Z,94521.84
2019-04-06T10:30:31.227Z,94526.05
2019-04-06T10:33:07.153Z,94527.73
2019-04-06T10:35:48.547Z,94533.84
2019-04-06T10:38:27.456Z,94530.82
2019-04-06T10:40:57.641Z,94529.09
2019-04-06T10:43:39.879Z,94522.22
2019-04-06T10:46:22.313Z,94531.86
2019-04-06T10:48:52.440Z,94542.41
2019-04-06T10:51:22.794Z,94549.57
2019-04-06T10:54:07.921Z,94552.11
2019-04-06T10:56:44.137Z,94561.41
2019-04-06T10:59:30.762Z,94566.42
2019-04-06T11:02:04.064Z,94569.03
2019-04-06T11:04:34.323Z,94566.82
2019-04-06T11:07:21.170Z,94570.84
2019-04-06T11:09:54.291Z,94577.44
2019-04-06T11:12:36.751Z,94579.41
2019-04-06T11:15:24.364Z,94571.07
2019-04-06T11:18:09.906Z,94576.23
2019-04-06T11:20:44.320Z,94579.80
2019-04-06T11:23:20.580Z,94580.80
2019-04-06T11:25:50.873Z,94589.17
2019-04-06T11:28:21.262Z,94589.09
2019-04-06T11:30:51.487Z,94586.00
2019-04-06T11:33:22.000Z,94588.17
2019-04-06T11:36:10.339Z,94603.80
2019-04-06T11:38:49.632Z,94598.00
2019-04-06T11:41:22.720Z,94590.09
2019-04-06T11:43:58.821Z,94579.11
2019-04-06T11:46:35.122Z,94574.53
2019-04-06T11:49:08.037Z,94570.95
2019-04-06T11:51:47.369Z,94576.58
2019-04-06T11:54:20.578Z,94578.21
2019-04-06T11:56:56.670Z,94583.75
2019-04-06T11:59:28.342Z,94579.45
2019-04-06T12:01:58.894Z,94579.48
2019-04-06T12:04:29.230Z,94571.94
2019-04-06T12:07:15.603Z,94565.59
2019-04-06T12:09:48.342Z,94559.55
2019-04-06T12:12:35.059Z,94557.06
2019-04-06T12:15:07.853Z,94555.42
2019-04-06T12:17:57.676Z,94543.38
2019-04-06T12:20:28.204Z,94537.50
2019-04-06T12:22:58.839Z,94526.43
2019-04-06T12:25:38.056Z,94526.69
2019-04-06T12:28:23.740Z,94518.57
2019-04-06T12:31:09.878Z,94504.34
2019-04-06T12:33:56.677Z,94508.85
2019-04-06T12:36:29.771Z,94504.25
2019-04-06T12:39:16.109Z,94502.91
2019-04-06T12:41:46.222Z,94501.05
2019-04-06T12:44:32.396Z,94492.25
2019-04-06T12:47:19.050Z,94481.31
2019-04-06T12:49:58.462Z,94484.70
2019-04-06T12:52:31.333Z,94481.28
2019-04-06T12:55:13.853Z,94487.03
2019-04-06T12:57:44.042Z,94478.72
2019-04-06T13:00:30.886Z,94475.19
2019-04-06T13:03:01.305Z,94474.61
2019-04-06T13:05:43.389Z,94468.42
2019-04-06T13:08:16.702Z,94470.23
2019-04-06T13:10:58.797Z,94477.16
2019-04-06T13:13:41.233Z,94473.27
2019-04-06T13:16:14.275Z,94467.39
2019-04-06T13:19:02.766Z,94467.25
2019-04-06T13:21:49.453Z,94462.06
2019-04-06T13:24:23.048Z,94458.52
2019-04-06T13:26:53.420Z,94458.38
2019-04-06T13:29:26.061Z,94458.73
2019-04-06T13:31:59.265Z,94458.92
2019-04-06T13:34:44.476Z,94468.27
2019-04-06T13:37:23.548Z,94458.97
2019-04-06T13:39:53.991Z,94458.52
2019-04-06T13:42:30.357Z,94456.55
2019-04-06T13:45:03.196Z,94461.33
2019-04-06T13:47:33.567Z,94456.23
2019-04-06T13:50:09.699Z,94465.20
2019-04-06T13:52:45.855Z,94466.14
2019-04-06T13:55:31.904Z,94469.50
2019-04-06T13:58:08.077Z,94466.20
2019-04-06T14:00:44.546Z,94466.70
2019-04-06T14:03:23.899Z,94460.78
2019-04-06T14:06:10.640Z,94465.41
2019-04-06T14:08:40.827Z,94469.74
2019-04-06T14:11:14.237Z,94473.58
2019-04-06T14:13:47.684Z,94479.92
2019-04-06T14:16:34.450Z,94482.13
2019-04-06T14:19:04.837Z,94483.03
2019-04-06T14:21:44.075Z,94476.70
2019-04-06T14:24:17.569Z,94481.44
2019-04-06T14:27:00.056Z,94478.05
2019-04-06T14:29:48.377Z,94478.13
2019-04-06T14:32:35.366Z,94484.59
2019-04-06T14:35:23.454Z,94476.11
2019-04-06T14:37:53.772Z,94481.27
2019-04-06T14:40:40.388Z,94479.74
2019-04-06T14:43:16.127Z,94478.98
2019-04-06T14:45:49.014Z,94473.13
2019-04-06T14:48:35.718Z,94481.81
2019-04-06T14:51:21.245Z,94476.50
2019-04-06T14:53:51.386Z,94475.77
2019-04-06T14:56:28.032Z,94477.44
2019-04-06T14:58:59.017Z,94472.31
2019-04-06T15:01:56.979Z,94474.91
2019-04-06T15:04:19.300Z,94468.61
2019-04-06T15:06:49.604Z,94464.45
2019-04-06T15:09:20.178Z,94469.67
2019-04-06T15:11:59.582Z,94465.19
2019-04-06T15:14:36.091Z,94463.66
2019-04-06T15:17:09.007Z,94466.31
2019-04-06T15:19:54.235Z,94462.25
2019-04-06T15:22:27.496Z,94463.14
2019-04-06T15:25:16.063Z,94457.20
2019-04-06T15:27:54.723Z,94450.33
2019-04-06T15:30:24.975Z,94453.69
2019-04-06T15:32:55.090Z,94448.70
2019-04-06T15:35:34.452Z,94447.38
2019-04-06T15:38:04.794Z,94450.27
2019-04-06T15:40:38.190Z,94452.72
2019-04-06T15:43:14.454Z,94452.24
2019-04-06T15:45:47.385Z,94454.80
2019-04-06T15:48:17.600Z,94456.53
2019-04-06T15:50:53.836Z,94451.00
2019-04-06T15:53:36.417Z,94452.31
2019-04-06T15:56:12.578Z,94457.13
2019-04-06T15:58:55.010Z,94456.72
2019-04-06T16:01:25.413Z,94456.84
2019-04-06T16:03:55.594Z,94457.77
2019-04-06T16:06:25.860Z,94459.98
2019-04-06T16:09:14.215Z,94457.45
2019-04-06T16:11:56.487Z,94458.34
2019-04-06T16:14:35.756Z,94460.96
2019-04-06T16:17:22.054Z,94462.48
2019-04-06T16:19:55.890Z,94460.02
2019-04-06T16:22:26.591Z,94460.85
2019-04-06T16:24:59.678Z,94456.16
2019-04-06T16:27:32.679Z,94454.40
2019-04-06T16:30:05.610Z,94458.17
2019-04-06T16:32:47.470Z,94458.65
2019-04-06T16:35:29.880Z,94455.29
2019-04-06T16:38:18.129Z,94459.57
2019-04-06T16:40:51.236Z,94460.41
2019-04-06T16:43:34.039Z,94459.06
2019-04-06T16:46:16.547Z,94465.84
2019-04-06T16:48:52.420Z,94458.59
2019-04-06T16:51:22.804Z,94453.06
2019-04-06T16:54:09.346Z,94459.06
2019-04-06T16:56:45.544Z,94451.42
2019-04-06T16:59:15.772Z,94456.09
2019-04-06T17:02:02.314Z,94448.06
2019-04-06T17:04:35.267Z,94449.41
2019-04-06T17:07:08.652Z,94451.05
2019-04-06T17:09:44.396Z,94453.24
2019-04-06T17:12:15.308Z,94454.88
2019-04-06T17:14:48.196Z,94454.02
2019-04-06T17:17:34.806Z,94451.91
2019-04-06T17:20:12.483Z,94451.10
2019-04-06T17:22:45.496Z,94451.67
2019-04-06T17:25:21.475Z,94450.51
2019-04-06T17:27:52.299Z,94452.63
2019-04-06T17:30:31.551Z,94450.95
2019-04-06T17:33:18.575Z,94452.27
2019-04-06T17:36:05.214Z,94448.45
2019-04-06T17:38:51.639Z,94444.72
2019-04-06T17:41:21.813Z,94452.86
2019-04-06T17:44:03.855Z,94452.17
2019-04-06T17:46:34.043Z,94449.70
2019-04-06T17:49:06.990Z,94454.04
2019-04-06T17:51:37.294Z,94456.21
2019-04-06T17:54:07.732Z,94452.37
2019-04-06T17:56:46.781Z,94451.13
2019-04-06T17:59:32.861Z,94451.19
2019-04-06T18:02:09.320Z,94449.13
2019-04-06T18:04:39.507Z,94445.41
2019-04-06T18:07:15.803Z,94442.97
2019-04-06T18:10:02.467Z,94450.78
2019-04-06T18:12:35.471Z,94446.78
2019-04-06T18:15:06.227Z,94440.61
2019-04-06T18:17:34.880Z,94444.24
2019-04-06T18:20:04.920Z,94449.59
2019-04-06T18:22:34.294Z,94450.70
2019-04-06T18:25:03.421Z,94450.47
2019-04-06T18:27:32.048Z,94458.77
2019-04-06T18:30:01.067Z,94457.59
2019-04-06T18:32:59.697Z,94455.16
2019-04-06T18:35:19.823Z,94456.95
2019-04-06T18:37:52.733Z,94456.16
2019-04-06T18:40:22.975Z,94454.56
2019-04-06T18:42:52.946Z,94458.84
2019-04-06T18:45:21.952Z,94460.14
2019-04-06T18:47:50.836Z,94461.44
2019-04-06T18:50:20.133Z,94462.69
2019-04-06T18:52:48.754Z,94466.50
2019-04-06T18:55:17.771Z,94467.33
2019-04-06T18:57:46.955Z,94466.98
2019-04-06T19:00:17.901Z,94464.98
2019-04-06T19:02:46.514Z,94461.25
2019-04-06T19:05:16.263Z,94457.89
2019-04-06T19:07:44.904Z,94459.22
2019-04-06T19:10:13.719Z,94457.48
2019-04-06T19:12:42.798Z,94459.08
2019-04-06T19:15:13.679Z,94459.08
2019-04-06T19:17:42.810Z,94456.52
2019-04-06T19:20:12.279Z,94461.70
2019-04-06T19:22:41.020Z,94454.12
2019-04-06T19:25:10.468Z,94455.95
2019-04-06T19:27:39.321Z,94455.61
2019-04-06T19:30:10.191Z,94458.30
2019-04-06T19:32:39.066Z,94456.30
2019-04-06T19:35:08.985Z,94462.31
2019-04-06T19:37:37.638Z,94458.58
2019-04-06T19:40:07.913Z,94472.25
2019-04-06T19:42:36.559Z,94471.89
2019-04-06T19:45:08.390Z,94474.52
2019-04-06T19:47:37.040Z,94469.05
2019-04-06T19:50:08.216Z,94469.48
2019-04-06T19:52:37.021Z,94465.67
2019-04-06T19:55:07.760Z,94474.23
2019-04-06T19:57:36.311Z,94476.00
2019-04-06T20:00:06.909Z,94473.85
2019-04-06T20:02:35.753Z,94469.52
2019-04-06T20:05:07.396Z,94466.48
2019-04-06T20:07:35.930Z,94470.69
2019-04-06T20:10:06.285Z,94465.61
2019-04-06T20:12:34.862Z,94463.95
2019-04-06T20:15:04.895Z,94464.46
2019-04-06T20:17:33.431Z,94464.09
2019-04-06T20:20:02.021Z,94459.47
2019-04-06T20:22:30.560Z,94459.11
2019-04-06T20:24:59.162Z,94465.92
2019-04-06T20:27:28.544Z,94463.06
2019-04-06T20:29:57.762Z,94472.91
2019-04-06T20:32:26.396Z,94467.42
2019-04-06T20:34:54.994Z,94472.53
2019-04-06T20:37:23.465Z,94472.95
2019-04-06T20:39:52.451Z,94465.31
2019-04-06T20:42:21.214Z,94471.31
2019-04-06T20:44:49.831Z,94470.10
2019-04-06T20:47:18.948Z,94461.66
2019-04-06T20:49:47.889Z,94465.10
2019-04-06T20:52:16.501Z,94462.56
2019-04-06T20:54:45.218Z,94470.22
2019-04-06T20:57:14.852Z,94471.11
2019-04-06T20:59:43.824Z,94468.61
2019-04-06T21:02:12.520Z,94465.17
2019-04-06T21:04:41.327Z,94463.53
2019-04-06T21:07:09.896Z,94461.82
2019-04-06T21:09:38.511Z,94464.80
2019-04-06T21:12:07.119Z,94455.97
2019-04-06T21:14:36.211Z,94462.80
2019-04-06T21:17:04.991Z,94468.83
2019-04-06T21:19:34.013Z,94468.89
2019-04-06T21:22:03.004Z,94468.48
2019-04-06T21:24:31.737Z,94464.26
2019-04-06T21:27:00.433Z,94464.27
2019-04-06T21:29:29.041Z,94461.78
2019-04-06T21:31:57.579Z,94461.41
2019-04-06T21:34:26.236Z,94458.62
2019-04-06T21:36:56.469Z,94462.52
2019-04-06T21:39:25.065Z,94456.67
2019-04-06T21:41:54.251Z,94459.34
2019-04-06T21:44:23.046Z,94452.72
2019-04-06T21:46:51.695Z,94456.16
2019-04-06T21:49:20.227Z,94454.56
2019-04-06T21:51:48.961Z,94449.92
2019-04-06T21:54:17.632Z,94452.47
2019-04-06T21:56:46.784Z,94458.83
2019-04-06T21:59:16.769Z,94462.64
2019-04-06T22:01:46.709Z,94461.86
2019-04-06T22:04:23.708Z,94462.31
2019-04-06T22:06:46.086Z,94456.06
2019-04-06T22:09:15.295Z,94454.84
2019-04-06T22:11:43.905Z,94453.56
2019-04-06T22:14:12.560Z,94446.83
2019-04-06T22:16:41.796Z,94448.16
2019-04-06T22:19:11.143Z,94449.02
2019-04-06T22:21:39.929Z,94444.82
2019-04-06T22:24:09.554Z,94445.30
2019-04-06T22:26:38.316Z,94449.11
2019-04-06T22:29:06.927Z,94446.14
2019-04-06T22:31:35.902Z,94452.09
2019-04-06T22:34:04.961Z,94447.95
2019-04-06T22:36:33.536Z,94445.56
2019-04-06T22:39:02.201Z,94443.06
2019-04-06T22:41:31.130Z,94446.91
2019-04-06T22:43:59.899Z,94446.88
2019-04-06T22:46:28.519Z,94449.89
2019-04-06T22:48:57.484Z,94450.42
2019-04-06T22:51:26.424Z,94453.00
2019-04-06T22:53:55.679Z,94450.06
2019-04-06T22:56:24.876Z,94448.72
2019-04-06T22:58:53.654Z,94448.23
2019-04-06T23:01:24.538Z,94446.48
2019-04-06T23:04:06.482Z,94448.93
2019-04-06T23:06:36.923Z,94448.88
2019-04-06T23:09:08.065Z,94452.23
2019-04-06T23:11:36.690Z,94445.42
2019-04-06T23:14:05.603Z,94447.11
2019-04-06T23:16:34.418Z,94445.80
2019-04-06T23:19:03.115Z,94438.58
2019-04-06T23:21:31.716Z,94433.05
2019-04-06T23:24:03.031Z,94430.11
2019-04-06T23:26:30.693Z,94441.54
2019-04-06T23:28:59.698Z,94435.98
2019-04-06T23:31:28.334Z,94428.01
2019-04-06T23:33:57.283Z,94427.63
2019-04-06T23:36:26.110Z,94425.53
2019-04-06T23:38:54.930Z,94417.08
2019-04-06T23:41:23.469Z,94408.15
2019-04-06T23:43:52.072Z,94417.03
2019-04-06T23:46:20.700Z,94414.11
2019-04-06T23:48:49.857Z,94412.44
2019-04-06T23:51:18.846Z,94407.32
2019-04-06T23:53:48.083Z,94417.47
2019-04-06T23:56:17.098Z,94420.41
2019-04-06T23:58:47.050Z,94416.19
